createdAt,value
2024-04-25T00:03:17.075Z,4.53
2024-04-25T00:08:19.095Z,4.57
2024-04-25T00:13:27.316Z,4.60
2024-04-25T00:18:29.786Z,4.54
2024-04-25T00:23:32.230Z,4.54
2024-04-25T00:28:34.267Z,4.48
2024-04-25T00:33:36.477Z,4.56
2024-04-25T00:38:38.766Z,4.61
2024-04-25T00:43:40.686Z,4.56
2024-04-25T00:48:42.771Z,4.49
2024-04-25T00:53:45.639Z,4.38
2024-04-25T00:58:50.367Z,4.37
2024-04-25T01:03:54.441Z,4.37
2024-04-25T01:08:56.668Z,4.33
2024-04-25T01:13:58.573Z,4.29
2024-04-25T01:19:00.499Z,4.27
2024-04-25T01:24:04.359Z,4.28
2024-04-25T01:29:09.975Z,4.24
2024-04-25T01:34:15.452Z,4.29
2024-04-25T01:39:17.433Z,4.37
2024-04-25T01:44:19.586Z,4.31
2024-04-25T01:49:22.192Z,4.23
2024-04-25T01:54:24.074Z,4.16
2024-04-25T01:59:26.271Z,4.20
2024-04-25T02:04:28.257Z,4.24
2024-04-25T02:09:30.275Z,4.32
2024-04-25T02:14:32.726Z,4.31
2024-04-25T02:19:34.715Z,4.29
2024-04-25T02:24:55.553Z,4.30
2024-04-25T02:29:57.448Z,4.30
2024-04-25T02:34:59.523Z,4.34
2024-04-25T02:40:01.624Z,4.34
2024-04-25T02:45:03.653Z,4.44
2024-04-25T02:50:06.200Z,4.43
2024-04-25T02:55:08.185Z,4.42
2024-04-25T03:00:10.863Z,4.51
2024-04-25T03:05:13.417Z,4.55
2024-04-25T03:10:15.413Z,4.56
2024-04-25T03:15:17.358Z,4.59
2024-04-25T03:20:19.439Z,4.59
2024-04-25T03:25:21.304Z,4.57
2024-04-25T03:30:23.152Z,4.58
2024-04-25T03:35:25.308Z,4.63
2024-04-25T03:40:27.328Z,4.64
2024-04-25T03:45:29.601Z,4.68
2024-04-25T03:50:31.793Z,4.75
2024-04-25T03:55:33.793Z,4.77
2024-04-25T04:00:35.619Z,4.79
2024-04-25T04:05:37.521Z,4.80
2024-04-25T04:10:42.555Z,4.85
2024-04-25T04:15:45.037Z,4.82
2024-04-25T04:20:50.111Z,4.85
2024-04-25T04:25:52.507Z,4.87
2024-04-25T04:30:54.635Z,4.84
2024-04-25T04:35:56.986Z,4.84
2024-04-25T04:40:59.715Z,4.85
2024-04-25T04:46:04.971Z,4.91
2024-04-25T04:51:07.517Z,4.96
2024-04-25T04:56:09.554Z,5.02
2024-04-25T05:01:11.498Z,5.06
2024-04-25T05:06:13.390Z,5.10
2024-04-25T05:11:15.437Z,5.12
2024-04-25T05:16:17.567Z,5.18
2024-04-25T05:21:19.459Z,5.18
2024-04-25T05:26:21.505Z,5.22
2024-04-25T05:31:24.127Z,5.23
2024-04-25T05:36:25.982Z,5.26
2024-04-25T05:41:27.964Z,5.23
2024-04-25T05:46:29.889Z,5.29
2024-04-25T05:51:31.873Z,5.26
2024-04-25T05:56:33.810Z,5.32
2024-04-25T06:01:35.680Z,5.35
2024-04-25T06:06:37.488Z,5.40
2024-04-25T06:11:39.553Z,5.49
2024-04-25T06:16:42.033Z,5.60
2024-04-25T06:21:43.878Z,5.69
2024-04-25T06:26:45.817Z,5.74
2024-04-25T06:31:48.559Z,5.81
2024-04-25T06:36:51.268Z,5.96
2024-04-25T06:41:58.327Z,6.01
2024-04-25T06:47:03.553Z,6.11
2024-04-25T06:52:06.014Z,6.10
2024-04-25T06:57:08.819Z,6.04
2024-04-25T07:02:11.025Z,6.03
2024-04-25T07:07:13.626Z,6.11
2024-04-25T07:12:15.629Z,6.10
2024-04-25T07:17:17.531Z,6.19
2024-04-25T07:22:19.485Z,6.17
2024-04-25T07:27:21.447Z,6.24
2024-04-25T07:32:23.564Z,6.16
2024-04-25T07:37:27.153Z,6.08
2024-04-25T07:42:30.262Z,5.82
2024-04-25T07:47:32.842Z,5.40
2024-04-25T07:52:35.524Z,4.88
2024-04-25T07:57:37.684Z,4.80
2024-04-25T08:02:39.720Z,4.89
2024-04-25T08:07:42.039Z,5.09
2024-04-25T08:12:45.367Z,5.33
2024-04-25T08:17:49.878Z,5.49
2024-04-25T08:22:52.833Z,5.76
2024-04-25T08:27:55.184Z,5.90
2024-04-25T08:32:58.045Z,6.09
2024-04-25T08:38:01.432Z,6.27
2024-04-25T08:43:04.501Z,6.34
2024-04-25T08:48:08.013Z,6.50
2024-04-25T08:53:11.244Z,6.65
2024-04-25T08:58:13.674Z,6.82
2024-04-25T09:03:16.216Z,7.04
2024-04-25T09:08:18.867Z,7.16
2024-04-25T09:13:22.509Z,7.10
2024-04-25T09:18:24.953Z,7.18
2024-04-25T09:23:27.110Z,7.14
2024-04-25T09:28:29.085Z,7.00
2024-04-25T09:33:31.694Z,6.91
2024-04-25T09:38:34.972Z,6.77
2024-04-25T09:43:36.982Z,6.84
2024-04-25T09:48:44.258Z,7.09
2024-04-25T09:54:03.875Z,7.37
2024-04-25T09:59:47.707Z,7.69
2024-04-25T10:04:50.607Z,7.62
2024-04-25T10:09:53.380Z,7.64
2024-04-25T10:14:57.230Z,7.80
2024-04-25T10:20:01.932Z,7.89
2024-04-25T10:25:06.161Z,7.85
2024-04-25T10:30:10.446Z,7.95
2024-04-25T10:35:15.470Z,8.15
2024-04-25T10:40:18.159Z,8.38
2024-04-25T10:45:20.049Z,8.41
2024-04-25T10:50:22.173Z,8.53
2024-04-25T10:55:24.850Z,8.73
2024-04-25T11:00:26.876Z,8.83
2024-04-25T11:05:28.942Z,8.89
2024-04-25T11:10:31.069Z,8.89
2024-04-25T11:15:33.186Z,8.95
2024-04-25T11:20:36.469Z,8.83
2024-04-25T11:25:38.572Z,8.83
2024-04-25T11:30:41.410Z,8.84
2024-04-25T11:35:47.438Z,8.93
2024-04-25T11:40:50.848Z,9.03
2024-04-25T11:45:53.086Z,9.38
2024-04-25T11:50:55.042Z,9.84
2024-04-25T11:55:57.775Z,10.08
2024-04-25T12:01:00.551Z,10.31
2024-04-25T12:06:03.949Z,10.35
2024-04-25T12:11:05.995Z,10.37
2024-04-25T12:16:07.883Z,10.25
2024-04-25T12:21:10.869Z,10.07
2024-04-25T12:26:17.987Z,9.51
2024-04-25T12:31:20.022Z,8.53
2024-04-25T12:36:22.067Z,7.95
2024-04-25T12:41:24.211Z,7.29
2024-04-25T12:46:26.196Z,7.09
2024-04-25T12:51:28.399Z,7.05
2024-04-25T12:56:30.857Z,6.87
2024-04-25T13:01:32.738Z,6.94
2024-04-25T13:06:34.540Z,7.11
2024-04-25T13:11:36.507Z,7.21
2024-04-25T13:16:38.479Z,7.42
2024-04-25T13:21:42.004Z,8.11
2024-04-25T13:26:44.062Z,8.40
2024-04-25T13:31:45.976Z,8.48
2024-04-25T13:36:50.723Z,8.43
2024-04-25T13:41:52.584Z,8.42
2024-04-25T13:46:56.744Z,8.23
2024-04-25T13:51:59.507Z,8.15
2024-04-25T13:57:03.921Z,8.09
2024-04-25T14:02:06.231Z,8.40
2024-04-25T14:07:10.245Z,8.90
2024-04-25T14:12:12.508Z,9.51
2024-04-25T14:17:14.599Z,9.84
2024-04-25T14:22:16.484Z,10.36
2024-04-25T14:27:37.689Z,10.44
2024-04-25T14:32:39.647Z,10.12
2024-04-25T14:37:41.571Z,9.89
2024-04-25T14:42:43.502Z,9.79
2024-04-25T14:47:45.542Z,9.80
2024-04-25T14:52:47.714Z,9.63
2024-04-25T14:57:49.836Z,9.55
2024-04-25T15:02:51.764Z,9.65
2024-04-25T15:08:01.781Z,9.61
2024-04-25T15:13:14.986Z,10.20
2024-04-25T15:18:22.644Z,10.82
2024-04-25T15:23:29.145Z,10.89
2024-04-25T15:28:40.127Z,10.65
2024-04-25T15:33:58.787Z,11.14
2024-04-25T15:39:02.704Z,11.55
2024-04-25T15:44:11.306Z,11.84
2024-04-25T15:49:19.827Z,11.99
2024-04-25T15:54:25.096Z,11.94
2024-04-25T15:59:28.412Z,11.75
2024-04-25T16:04:31.944Z,11.44
2024-04-25T16:10:05.208Z,11.56
2024-04-25T16:15:10.174Z,11.57
2024-04-25T16:20:16.160Z,11.72
2024-04-25T16:25:22.835Z,11.20
2024-04-25T16:30:26.266Z,10.58
2024-04-25T16:35:32.682Z,10.31
2024-04-25T16:40:43.850Z,10.18
2024-04-25T16:45:54.332Z,10.05
2024-04-25T16:50:58.695Z,9.96
2024-04-25T16:56:02.090Z,9.83
2024-04-25T17:01:11.266Z,9.73
2024-04-25T17:06:22.521Z,9.69
2024-04-25T17:11:29.458Z,9.66
2024-04-25T17:16:40.577Z,9.61
2024-04-25T17:21:58.068Z,9.61
2024-04-25T17:27:01.780Z,9.66
2024-04-25T17:32:13.568Z,10.00
2024-04-25T17:37:48.697Z,10.43
2024-04-25T17:42:58.281Z,10.71
2024-04-25T17:48:12.667Z,10.89
2024-04-25T17:53:19.810Z,10.65
2024-04-25T17:58:27.130Z,10.34
2024-04-25T18:03:35.304Z,10.16
2024-04-25T18:08:38.974Z,9.79
2024-04-25T18:13:48.846Z,9.52
2024-04-25T18:19:02.425Z,9.32
2024-04-25T18:24:17.442Z,8.81
2024-04-25T18:29:30.961Z,8.32
2024-04-25T18:34:45.382Z,7.98
2024-04-25T18:39:56.603Z,7.56
2024-04-25T18:45:13.443Z,7.37
2024-04-25T18:50:34.768Z,7.40
2024-04-25T18:55:50.479Z,7.21
2024-04-25T19:00:54.821Z,7.11
2024-04-25T19:06:05.645Z,6.98
2024-04-25T19:11:11.303Z,6.85
2024-04-25T19:16:27.913Z,6.70
2024-04-25T19:21:55.808Z,6.59
2024-04-25T19:26:59.115Z,6.56
2024-04-25T19:32:09.604Z,6.39
2024-04-25T19:37:18.021Z,6.34
2024-04-25T19:42:30.262Z,6.32
2024-04-25T19:47:40.528Z,6.27
2024-04-25T19:52:47.121Z,6.22
2024-04-25T19:57:59.678Z,6.02
2024-04-25T20:03:23.043Z,5.51
2024-04-25T20:08:33.237Z,5.25
2024-04-25T20:14:01.811Z,5.15
2024-04-25T20:19:31.082Z,5.17
2024-04-25T20:24:42.466Z,5.24
2024-04-25T20:29:51.972Z,5.32
2024-04-25T20:34:56.061Z,5.37
2024-04-25T20:40:05.725Z,5.26
2024-04-25T20:45:15.894Z,5.36
2024-04-25T20:50:25.640Z,5.59
2024-04-25T20:55:36.596Z,5.74
2024-04-25T21:00:52.679Z,5.78
2024-04-25T21:06:01.610Z,5.78
2024-04-25T21:11:18.663Z,5.69
2024-04-25T21:16:42.909Z,5.55
2024-04-25T21:21:59.580Z,5.47
2024-04-25T21:27:14.200Z,5.40
2024-04-25T21:32:25.680Z,5.43
2024-04-25T21:37:36.752Z,5.52
2024-04-25T21:42:47.938Z,5.60
2024-04-25T21:47:57.299Z,5.63
2024-04-25T21:53:03.907Z,5.65
2024-04-25T21:58:11.089Z,5.52
2024-04-25T22:03:17.781Z,5.42
2024-04-25T22:08:27.532Z,5.43
2024-04-25T22:13:35.854Z,5.47
2024-04-25T22:18:45.338Z,5.50
2024-04-25T22:23:57.454Z,5.52
2024-04-25T22:29:05.706Z,5.56
2024-04-25T22:34:18.550Z,5.72
2024-04-25T22:39:32.189Z,5.85
2024-04-25T22:44:39.169Z,5.95
2024-04-25T22:49:53.665Z,6.02
2024-04-25T22:55:04.348Z,6.05
2024-04-25T23:00:13.194Z,6.17
2024-04-25T23:05:22.252Z,6.19
2024-04-25T23:10:32.297Z,6.27
2024-04-25T23:15:36.739Z,6.34
2024-04-25T23:20:44.045Z,6.41
2024-04-25T23:25:53.606Z,6.37
2024-04-25T23:30:59.442Z,6.42
2024-04-25T23:36:05.248Z,6.45
2024-04-25T23:41:12.291Z,6.48
2024-04-25T23:46:18.931Z,6.49
2024-04-25T23:51:26.603Z,6.48
2024-04-25T23:56:41.244Z,6.51
